createdAt,value
2019-04-01T00:00:42.623Z,13.43
2019-04-01T00:03:16.276Z,13.63
2019-04-01T00:05:50.087Z,15.53
2019-04-01T00:08:23.755Z,16.83
2019-04-01T00:10:57.542Z,16.40
2019-04-01T00:13:31.203Z,17.87
2019-04-01T00:16:05.041Z,17.03
2019-04-01T00:18:38.833Z,18.40
2019-04-01T00:21:12.521Z,18.40
2019-04-01T00:23:46.317Z,18.33
2019-04-01T00:26:20.010Z,15.63
2019-04-01T00:28:53.746Z,15.33
2019-04-01T00:31:27.351Z,15.13
2019-04-01T00:34:01.133Z,16.23
2019-04-01T00:36:34.742Z,16.37
2019-04-01T00:39:08.701Z,16.70
2019-04-01T00:41:44.129Z,16.17
2019-04-01T00:44:17.772Z,15.80
2019-04-01T00:46:51.440Z,16.20
2019-04-01T00:49:25.205Z,15.60
2019-04-01T00:51:58.976Z,15.30
2019-04-01T00:54:32.678Z,16.37
2019-04-01T00:57:06.320Z,17.10
2019-04-01T00:59:40.027Z,18.10
2019-04-01T01:02:13.686Z,17.03
2019-04-01T01:04:47.554Z,18.53
2019-04-01T01:07:21.341Z,22.17
2019-04-01T01:09:55.136Z,23.00
2019-04-01T01:16:15.646Z,16.53
2019-04-01T01:18:49.223Z,15.07
2019-04-01T01:21:23.279Z,15.10
2019-04-01T01:23:56.988Z,15.53
2019-04-01T01:26:30.691Z,14.47
2019-04-01T01:32:41.872Z,13.83
2019-04-01T01:35:15.660Z,13.20
2019-04-01T01:37:49.364Z,13.47
2019-04-01T01:40:23.036Z,13.83
2019-04-01T01:42:58.161Z,13.50
2019-04-01T01:45:31.874Z,12.07
2019-04-01T01:48:05.536Z,11.97
2019-04-01T01:50:39.340Z,11.70
2019-04-01T01:53:13.028Z,11.20
2019-04-01T01:55:47.010Z,11.83
2019-04-01T01:58:20.756Z,11.90
2019-04-01T02:00:56.132Z,11.13
2019-04-01T02:03:29.884Z,10.97
2019-04-01T02:06:03.818Z,11.73
2019-04-01T02:08:37.538Z,10.27
2019-04-01T02:11:11.230Z,10.47
2019-04-01T02:13:44.898Z,10.53
2019-04-01T02:16:18.674Z,10.50
2019-04-01T02:18:52.666Z,10.10
2019-04-01T02:21:27.174Z,9.70
2019-04-01T02:24:00.894Z,10.33
2019-04-01T02:26:34.617Z,9.87
2019-04-01T02:29:08.300Z,9.50
2019-04-01T02:31:41.984Z,9.57
2019-04-01T02:34:15.700Z,8.53
2019-04-01T02:36:49.436Z,8.83
2019-04-01T02:39:23.479Z,9.10
2019-04-01T02:41:57.313Z,9.03
2019-04-01T02:44:31.008Z,8.30
2019-04-01T02:47:04.873Z,8.87
2019-04-01T02:49:38.633Z,8.77
2019-04-01T02:52:12.393Z,8.60
2019-04-01T02:54:46.043Z,8.60
2019-04-01T02:57:19.641Z,9.20
2019-04-01T02:59:53.371Z,9.43
2019-04-01T03:02:27.088Z,9.50
2019-04-01T03:05:00.726Z,9.07
2019-04-01T03:07:34.420Z,11.40
2019-04-01T03:10:08.234Z,11.13
2019-04-01T03:12:41.958Z,11.90
2019-04-01T03:15:15.793Z,9.90
2019-04-01T03:17:49.479Z,9.87
2019-04-01T03:20:23.180Z,10.40
2019-04-01T03:22:56.843Z,11.63
2019-04-01T03:25:30.625Z,10.60
2019-04-01T03:31:41.739Z,11.60
2019-04-01T03:34:15.410Z,10.77
2019-04-01T03:36:49.196Z,11.23
2019-04-01T03:39:23.168Z,9.73
2019-04-01T03:41:57.008Z,9.97
2019-04-01T03:48:16.816Z,9.07
2019-04-01T03:50:50.445Z,9.23
2019-04-01T03:53:24.143Z,9.57
2019-04-01T03:55:57.899Z,9.57
2019-04-01T03:58:31.530Z,10.53
2019-04-01T04:01:05.454Z,10.33
2019-04-01T04:03:39.153Z,10.70
2019-04-01T04:06:12.965Z,10.13
2019-04-01T04:08:46.598Z,10.57
2019-04-01T04:11:20.326Z,10.37
2019-04-01T04:13:54.103Z,10.87
2019-04-01T04:16:27.854Z,10.93
2019-04-01T04:19:01.670Z,12.23
2019-04-01T04:21:35.476Z,14.63
2019-04-01T04:24:10.713Z,13.67
2019-04-01T04:26:44.422Z,15.63
2019-04-01T04:29:18.588Z,13.47
2019-04-01T04:31:52.270Z,13.37
2019-04-01T04:34:25.925Z,12.70
2019-04-01T04:36:59.601Z,12.33
2019-04-01T04:39:33.345Z,11.93
2019-04-01T04:42:07.059Z,15.27
2019-04-01T04:44:40.838Z,15.53
2019-04-01T04:47:14.870Z,13.07
2019-04-01T04:49:48.799Z,14.13
2019-04-01T04:52:22.491Z,13.60
2019-04-01T04:54:56.409Z,12.30
2019-04-01T04:57:30.096Z,13.57
2019-04-01T05:00:05.512Z,14.17
2019-04-01T05:02:39.192Z,14.93
2019-04-01T05:05:12.947Z,14.90
2019-04-01T05:07:46.550Z,14.30
2019-04-01T05:10:20.362Z,13.97
2019-04-01T05:12:54.062Z,14.73
2019-04-01T05:15:27.808Z,14.27
2019-04-01T05:18:01.576Z,14.67
2019-04-01T05:20:38.155Z,13.67
2019-04-01T05:23:13.576Z,15.67
2019-04-01T05:25:48.344Z,14.20
2019-04-01T05:28:23.198Z,15.43
2019-04-01T05:30:59.489Z,14.87
2019-04-01T05:33:36.286Z,14.13
2019-04-01T05:36:10.460Z,14.50
2019-04-01T05:38:45.764Z,14.37
2019-04-01T05:41:19.813Z,14.27
2019-04-01T05:47:36.224Z,17.83
2019-04-01T05:50:09.952Z,21.07
2019-04-01T05:52:43.744Z,21.80
2019-04-01T05:55:17.506Z,24.20
2019-04-01T05:57:51.258Z,24.07
2019-04-01T06:04:01.905Z,20.57
2019-04-01T06:06:35.784Z,17.23
2019-04-01T06:09:09.483Z,17.33
2019-04-01T06:11:43.287Z,17.10
2019-04-01T06:14:17.238Z,20.10
2019-04-01T06:16:51.311Z,18.97
2019-04-01T06:19:25.050Z,17.77
2019-04-01T06:21:59.846Z,18.47
2019-04-01T06:24:33.818Z,17.90
2019-04-01T06:27:08.725Z,17.37
2019-04-01T06:29:42.821Z,14.90
2019-04-01T06:32:16.624Z,14.17
2019-04-01T06:34:53.010Z,10.70
2019-04-01T06:37:25.954Z,12.53
2019-04-01T06:39:59.965Z,11.33
2019-04-01T06:42:33.797Z,9.17
2019-04-01T06:45:07.695Z,8.33
2019-04-01T06:47:41.484Z,6.90
2019-04-01T06:50:15.383Z,6.87
2019-04-01T06:52:49.173Z,6.17
2019-04-01T06:55:23.049Z,5.27
2019-04-01T06:57:56.843Z,5.30
2019-04-01T07:00:30.626Z,4.43
2019-04-01T07:03:04.465Z,5.40
2019-04-01T07:05:38.237Z,5.60
2019-04-01T07:08:12.040Z,4.57
2019-04-01T07:10:45.880Z,4.10
2019-04-01T07:13:20.065Z,4.12
2019-04-01T07:15:53.763Z,3.87
2019-04-01T07:18:27.628Z,3.65
2019-04-01T07:21:01.379Z,3.87
2019-04-01T07:23:35.310Z,3.52
2019-04-01T07:26:09.291Z,3.70
2019-04-01T07:28:43.025Z,3.47
2019-04-01T07:31:16.791Z,3.30
2019-04-01T07:33:50.641Z,3.72
2019-04-01T07:36:24.860Z,3.22
2019-04-01T07:38:58.666Z,3.60
2019-04-01T07:41:32.573Z,3.57
2019-04-01T07:44:06.703Z,3.90
2019-04-01T07:46:40.421Z,4.27
2019-04-01T07:49:14.443Z,3.93
2019-04-01T07:51:48.363Z,3.20
2019-04-01T07:54:22.268Z,2.93
2019-04-01T07:56:56.332Z,2.53
2019-04-01T08:02:13.195Z,2.20
2019-04-01T08:04:47.228Z,2.23
2019-04-01T08:07:21.851Z,1.83
2019-04-01T08:09:55.861Z,1.70
2019-04-01T08:12:30.391Z,1.83
2019-04-01T08:18:50.485Z,1.00
2019-04-01T08:21:24.161Z,2.13
2019-04-01T08:23:57.893Z,1.23
2019-04-01T08:26:31.635Z,1.80
2019-04-01T08:29:05.503Z,1.80
2019-04-01T08:35:16.579Z,1.60
2019-04-01T08:37:50.221Z,1.20
2019-04-01T08:40:23.899Z,1.30
2019-04-01T08:42:57.521Z,1.00
2019-04-01T08:45:31.308Z,1.30
2019-04-01T08:48:05.043Z,1.17
2019-04-01T08:50:38.826Z,1.40
2019-04-01T08:53:12.484Z,1.60
2019-04-01T08:55:46.282Z,2.47
2019-04-01T08:58:20.388Z,1.87
2019-04-01T09:00:54.130Z,1.93
2019-04-01T09:03:27.817Z,2.00
2019-04-01T09:06:01.760Z,1.90
2019-04-01T09:08:36.905Z,2.13
2019-04-01T09:11:10.689Z,1.90
2019-04-01T09:13:44.426Z,2.37
2019-04-01T09:16:18.887Z,2.23
2019-04-01T09:18:52.549Z,1.87
2019-04-01T09:21:26.359Z,1.80
2019-04-01T09:24:00.117Z,2.13
2019-04-01T09:26:33.891Z,2.10
2019-04-01T09:29:08.780Z,2.00
2019-04-01T09:31:42.866Z,1.43
2019-04-01T09:34:16.563Z,1.60
2019-04-01T09:36:50.539Z,1.83
2019-04-01T09:39:24.692Z,1.97
2019-04-01T09:41:58.383Z,2.20
2019-04-01T09:44:36.900Z,3.13
2019-04-01T09:47:08.439Z,2.37
2019-04-01T09:49:42.427Z,2.27
2019-04-01T09:52:16.725Z,1.83
2019-04-01T09:54:50.512Z,1.63
2019-04-01T09:57:24.382Z,1.77
2019-04-01T09:59:58.217Z,1.80
2019-04-01T10:02:32.483Z,1.93
2019-04-01T10:05:08.426Z,2.50
2019-04-01T10:07:42.179Z,2.03
2019-04-01T10:10:16.044Z,1.73
2019-04-01T10:12:49.851Z,2.10
2019-04-01T10:19:00.812Z,1.70
2019-04-01T10:21:35.619Z,2.00
2019-04-01T10:24:09.337Z,1.90
2019-04-01T10:26:43.132Z,1.43
2019-04-01T10:29:16.922Z,1.30
2019-04-01T10:35:36.546Z,1.60
2019-04-01T10:38:10.229Z,1.70
2019-04-01T10:40:43.904Z,0.40
2019-04-01T10:43:17.674Z,0.90
2019-04-01T10:45:51.538Z,0.90
2019-04-01T10:48:25.589Z,0.70
2019-04-01T10:50:59.317Z,0.60
2019-04-01T10:53:33.441Z,0.90
2019-04-01T10:56:07.185Z,0.70
2019-04-01T10:58:41.711Z,0.80
2019-04-01T11:01:15.617Z,0.60
2019-04-01T11:03:49.443Z,0.70
2019-04-01T11:06:23.462Z,1.40
2019-04-01T11:08:57.275Z,1.60
2019-04-01T11:11:31.061Z,1.30
2019-04-01T11:14:04.958Z,1.30
2019-04-01T11:16:38.691Z,1.07
2019-04-01T11:19:12.876Z,1.30
2019-04-01T11:21:46.671Z,1.20
2019-04-01T11:24:20.812Z,1.23
2019-04-01T11:26:54.511Z,1.20
2019-04-01T11:29:28.144Z,1.10
2019-04-01T11:32:02.023Z,1.13
2019-04-01T11:34:35.715Z,1.10
2019-04-01T11:37:09.463Z,0.97
2019-04-01T11:39:43.431Z,0.80
2019-04-01T11:42:20.361Z,1.10
2019-04-01T11:44:54.252Z,1.23
2019-04-01T11:47:28.747Z,0.90
2019-04-01T11:50:02.557Z,1.13
2019-04-01T11:52:37.236Z,1.10
2019-04-01T11:55:12.695Z,0.83
2019-04-01T11:57:47.982Z,1.00
2019-04-01T12:00:21.716Z,1.30
2019-04-01T12:02:55.417Z,0.80
2019-04-01T12:05:29.639Z,1.10
2019-04-01T12:08:03.488Z,0.80
2019-04-01T12:10:37.139Z,0.80
2019-04-01T12:13:10.755Z,0.50
2019-04-01T12:15:44.807Z,0.70
2019-04-01T12:18:18.534Z,0.83
2019-04-01T12:20:52.274Z,0.77
2019-04-01T12:23:25.918Z,0.80
2019-04-01T12:26:14.382Z,0.83
2019-04-01T12:28:37.959Z,0.80
2019-04-01T12:34:02.926Z,0.90
2019-04-01T12:36:36.604Z,1.00
2019-04-01T12:39:11.003Z,0.70
2019-04-01T12:41:44.780Z,1.43
2019-04-01T12:44:18.458Z,1.00
2019-04-01T12:50:29.768Z,0.57
2019-04-01T12:53:03.487Z,0.83
2019-04-01T12:55:37.412Z,1.00
2019-04-01T12:58:11.820Z,0.63
2019-04-01T13:00:46.231Z,0.70
2019-04-01T13:07:06.870Z,0.70
2019-04-01T13:09:40.586Z,0.80
2019-04-01T13:12:14.383Z,0.70
2019-04-01T13:14:48.022Z,0.97
2019-04-01T13:17:21.996Z,1.17
2019-04-01T13:19:55.713Z,0.60
2019-04-01T13:22:29.482Z,0.70
2019-04-01T13:25:05.627Z,0.70
2019-04-01T13:27:38.750Z,0.90
2019-04-01T13:30:12.825Z,1.27
2019-04-01T13:32:46.390Z,1.03
2019-04-01T13:35:20.152Z,0.83
2019-04-01T13:37:54.252Z,1.03
2019-04-01T13:40:27.966Z,1.10
2019-04-01T13:43:04.421Z,1.00
2019-04-01T13:45:37.347Z,0.77
2019-04-01T13:48:11.236Z,0.90
2019-04-01T13:50:45.241Z,0.50
2019-04-01T13:53:19.522Z,0.60
2019-04-01T13:55:54.902Z,0.70
2019-04-01T13:58:28.702Z,0.70
2019-04-01T14:01:02.524Z,1.10
2019-04-01T14:03:36.252Z,1.00
2019-04-01T14:06:09.976Z,0.80
2019-04-01T14:08:43.692Z,0.83
2019-04-01T14:11:17.490Z,0.90
2019-04-01T14:13:51.092Z,0.90
2019-04-01T14:16:24.776Z,1.10
2019-04-01T14:18:58.757Z,1.00
2019-04-01T14:21:32.388Z,0.70
2019-04-01T14:24:06.072Z,0.63
2019-04-01T14:26:40.939Z,0.70
2019-04-01T14:29:16.498Z,0.90
2019-04-01T14:35:17.050Z,0.57
2019-04-01T14:37:53.750Z,0.53
2019-04-01T14:40:27.492Z,0.60
2019-04-01T14:43:01.331Z,0.60
2019-04-01T14:45:35.469Z,0.67
2019-04-01T14:51:52.105Z,1.03
2019-04-01T14:54:25.837Z,0.80
2019-04-01T14:56:59.783Z,0.87
2019-04-01T14:59:35.596Z,0.87
2019-04-01T15:02:09.222Z,0.90
2019-04-01T15:04:42.880Z,0.80
2019-04-01T15:07:18.486Z,0.70
2019-04-01T15:09:52.362Z,0.53
2019-04-01T15:12:26.060Z,0.80
2019-04-01T15:14:59.678Z,0.80
2019-04-01T15:17:37.214Z,0.90
2019-04-01T15:20:11.372Z,1.03
2019-04-01T15:22:45.080Z,1.03
2019-04-01T15:25:18.800Z,1.00
2019-04-01T15:27:52.470Z,0.70
2019-04-01T15:30:27.375Z,0.73
2019-04-01T15:33:01.409Z,0.70
2019-04-01T15:35:36.007Z,0.83
2019-04-01T15:38:09.790Z,0.70
2019-04-01T15:40:43.607Z,0.80
2019-04-01T15:43:17.266Z,0.90
2019-04-01T15:45:51.051Z,0.70
2019-04-01T15:48:24.749Z,0.90
2019-04-01T15:50:58.727Z,0.90
2019-04-01T15:53:32.646Z,0.80
2019-04-01T15:56:06.655Z,0.50
2019-04-01T15:58:40.318Z,0.37
2019-04-01T16:01:14.062Z,0.30
2019-04-01T16:03:47.967Z,0.40
2019-04-01T16:06:21.810Z,0.50
2019-04-01T16:08:57.189Z,0.30
2019-04-01T16:11:30.861Z,0.30
2019-04-01T16:14:05.024Z,0.40
2019-04-01T16:16:38.679Z,0.40
2019-04-01T16:19:12.302Z,0.77
2019-04-01T16:21:46.184Z,0.70
2019-04-01T16:24:19.987Z,0.50
2019-04-01T16:26:53.645Z,0.47
2019-04-01T16:29:27.313Z,0.47
2019-04-01T16:32:00.983Z,0.40
2019-04-01T16:34:34.875Z,0.73
2019-04-01T16:37:09.064Z,0.70
2019-04-01T16:39:42.835Z,0.97
2019-04-01T16:42:16.759Z,1.20
2019-04-01T16:44:53.871Z,1.17
2019-04-01T16:47:25.854Z,1.00
2019-04-01T16:49:59.594Z,0.70
2019-04-01T16:52:33.286Z,0.67
2019-04-01T16:55:08.723Z,1.20
2019-04-01T16:57:42.726Z,0.87
2019-04-01T17:00:18.834Z,1.20
2019-04-01T17:06:29.657Z,0.90
2019-04-01T17:09:05.462Z,0.80
2019-04-01T17:11:39.192Z,0.90
2019-04-01T17:14:12.892Z,0.90
2019-04-01T17:16:46.595Z,1.00
2019-04-01T17:22:57.659Z,0.60
2019-04-01T17:25:31.342Z,1.20
2019-04-01T17:28:05.541Z,1.17
2019-04-01T17:30:39.111Z,1.30
2019-04-01T17:33:12.835Z,1.23
2019-04-01T17:35:46.427Z,1.30
2019-04-01T17:38:20.041Z,1.30
2019-04-01T17:40:53.715Z,1.30
2019-04-01T17:43:27.499Z,1.30
2019-04-01T17:46:01.657Z,1.60
2019-04-01T17:48:35.251Z,1.60
2019-04-01T17:51:08.966Z,1.37
2019-04-01T17:53:42.751Z,1.43
2019-04-01T17:56:18.405Z,1.70
2019-04-01T17:58:52.168Z,2.10
2019-04-01T18:01:25.892Z,1.80
2019-04-01T18:03:59.512Z,1.90
2019-04-01T18:06:33.110Z,1.90
2019-04-01T18:09:10.408Z,2.70
2019-04-01T18:11:44.188Z,1.73
2019-04-01T18:14:19.095Z,1.80
2019-04-01T18:16:52.851Z,1.97
2019-04-01T18:19:26.507Z,1.87
2019-04-01T18:22:00.503Z,2.00
2019-04-01T18:24:34.255Z,2.00
2019-04-01T18:27:07.996Z,2.10
2019-04-01T18:29:41.674Z,2.10
2019-04-01T18:32:15.354Z,1.83
2019-04-01T18:34:49.018Z,2.30
2019-04-01T18:37:22.796Z,2.70
2019-04-01T18:39:57.295Z,2.63
2019-04-01T18:42:31.307Z,3.80
2019-04-01T18:45:06.902Z,4.00
2019-04-01T18:47:40.625Z,4.13
2019-04-01T18:50:14.668Z,4.07
2019-04-01T18:52:48.556Z,3.90
2019-04-01T18:55:22.301Z,2.87
2019-04-01T18:57:56.498Z,4.05
2019-04-01T19:00:30.858Z,2.50
2019-04-01T19:03:04.670Z,2.67
2019-04-01T19:05:38.968Z,2.03
2019-04-01T19:08:12.920Z,2.50
2019-04-01T19:10:46.587Z,2.17
2019-04-01T19:13:20.202Z,2.20
2019-04-01T19:15:54.714Z,1.67
2019-04-01T19:18:29.022Z,2.07
2019-04-01T19:21:04.887Z,1.93
2019-04-01T19:23:38.038Z,2.27
2019-04-01T19:26:11.760Z,2.43
2019-04-01T19:28:47.077Z,3.20
2019-04-01T19:31:20.912Z,4.07
2019-04-01T19:37:33.716Z,3.40
2019-04-01T19:40:08.440Z,2.90
2019-04-01T19:42:42.135Z,2.83
2019-04-01T19:45:16.352Z,3.23
2019-04-01T19:47:50.035Z,2.80
2019-04-01T19:54:00.946Z,2.83
2019-04-01T19:56:34.601Z,2.63
2019-04-01T19:59:08.370Z,2.33
2019-04-01T20:01:42.076Z,2.83
2019-04-01T20:04:15.804Z,2.90
2019-04-01T20:06:49.554Z,2.83
2019-04-01T20:09:23.338Z,2.87
2019-04-01T20:11:58.381Z,3.03
2019-04-01T20:14:32.151Z,3.17
2019-04-01T20:17:07.043Z,4.73
2019-04-01T20:19:40.683Z,6.23
2019-04-01T20:22:14.319Z,6.80
2019-04-01T20:24:48.293Z,7.43
2019-04-01T20:27:22.034Z,6.13
2019-04-01T20:29:55.926Z,7.10
2019-04-01T20:32:30.256Z,7.57
2019-04-01T20:35:05.638Z,7.77
2019-04-01T20:37:39.511Z,8.93
2019-04-01T20:40:13.718Z,9.43
2019-04-01T20:42:47.393Z,11.37
2019-04-01T20:45:21.182Z,13.60
2019-04-01T20:47:54.835Z,13.63
2019-04-01T20:50:31.772Z,13.77
2019-04-01T20:53:05.506Z,14.07
2019-04-01T20:55:48.144Z,13.10
2019-04-01T20:58:14.569Z,12.87
2019-04-01T21:00:50.499Z,11.67
2019-04-01T21:03:24.081Z,11.70
2019-04-01T21:05:57.880Z,12.87
2019-04-01T21:08:31.470Z,15.87
2019-04-01T21:11:05.420Z,18.77
2019-04-01T21:13:39.964Z,18.83
2019-04-01T21:16:13.755Z,20.37
2019-04-01T21:18:48.245Z,20.53
2019-04-01T21:21:23.186Z,21.03
2019-04-01T21:23:59.566Z,21.07
2019-04-01T21:26:31.988Z,21.57
2019-04-01T21:29:06.508Z,20.60
2019-04-01T21:31:40.310Z,21.97
2019-04-01T21:34:14.159Z,21.10
2019-04-01T21:36:47.893Z,21.70
2019-04-01T21:39:21.662Z,21.47
2019-04-01T21:41:55.387Z,20.23
2019-04-01T21:44:29.321Z,20.20
2019-04-01T21:47:02.946Z,20.67
2019-04-01T21:53:22.647Z,20.13
2019-04-01T21:55:56.701Z,20.87
2019-04-01T21:58:30.440Z,21.90
2019-04-01T22:01:04.442Z,20.63
2019-04-01T22:03:38.457Z,18.33
2019-04-01T22:10:00.001Z,17.27
2019-04-01T22:12:34.094Z,17.47
2019-04-01T22:15:08.312Z,15.80
2019-04-01T22:17:42.339Z,14.13
2019-04-01T22:20:16.250Z,12.60
2019-04-01T22:22:50.088Z,12.70
2019-04-01T22:25:23.970Z,12.17
2019-04-01T22:27:57.826Z,12.03
2019-04-01T22:30:31.967Z,12.73
2019-04-01T22:33:06.010Z,12.53
2019-04-01T22:35:41.978Z,12.40
2019-04-01T22:38:25.133Z,12.83
2019-04-01T22:40:51.587Z,12.53
2019-04-01T22:43:25.809Z,14.23
2019-04-01T22:45:59.850Z,13.30
2019-04-01T22:48:33.857Z,12.80
2019-04-01T22:51:08.670Z,13.50
2019-04-01T22:53:44.130Z,12.60
2019-04-01T22:56:18.240Z,11.97
2019-04-01T22:58:52.253Z,11.77
2019-04-01T23:01:26.171Z,10.70
2019-04-01T23:04:00.076Z,11.20
2019-04-01T23:06:34.363Z,11.70
2019-04-01T23:09:09.322Z,11.03
2019-04-01T23:11:43.336Z,11.63
2019-04-01T23:14:17.338Z,10.63
2019-04-01T23:16:51.665Z,11.23
2019-04-01T23:19:25.674Z,11.20
2019-04-01T23:22:00.246Z,11.00
2019-04-01T23:24:34.568Z,11.83
2019-04-01T23:27:08.520Z,9.47
2019-04-01T23:29:42.442Z,10.50
2019-04-01T23:32:16.752Z,10.87
2019-04-01T23:34:50.797Z,10.97
2019-04-01T23:37:24.753Z,10.40
2019-04-01T23:39:58.680Z,10.73
2019-04-01T23:42:32.691Z,11.13
2019-04-01T23:45:07.715Z,10.30
2019-04-01T23:47:41.744Z,10.50
2019-04-01T23:53:52.555Z,9.73
2019-04-01T23:56:27.300Z,9.90
2019-04-01T23:59:01.787Z,9.30
